sensor_id;sensor_type;location;lat;lon;timestamp;P1;durP1;ratioP1;P2;durP2;ratioP2
65533;SDS011;53640;55.838;37.184;2024-02-16T00:01:49;19.52;;;9.52;;
65533;SDS011;53640;55.838;37.184;2024-02-16T00:04:16;20.85;;;9.52;;
65533;SDS011;53640;55.838;37.184;2024-02-16T00:06:42;19.42;;;9.05;;
65533;SDS011;53640;55.838;37.184;2024-02-16T00:09:10;18.48;;;9.13;;
65533;SDS011;53640;55.838;37.184;2024-02-16T00:11:36;21.38;;;10.40;;
65533;SDS011;53640;55.838;37.184;2024-02-16T00:14:03;20.48;;;9.15;;
65533;SDS011;53640;55.838;37.184;2024-02-16T00:16:29;20.92;;;9.40;;
65533;SDS011;53640;55.838;37.184;2024-02-16T00:18:56;21.58;;;8.65;;
65533;SDS011;53640;55.838;37.184;2024-02-16T00:21:22;19.63;;;9.57;;
65533;SDS011;53640;55.838;37.184;2024-02-16T00:23:48;17.63;;;8.38;;
65533;SDS011;53640;55.838;37.184;2024-02-16T00:26:15;22.33;;;8.68;;
65533;SDS011;53640;55.838;37.184;2024-02-16T00:28:41;16.25;;;8.90;;
65533;SDS011;53640;55.838;37.184;2024-02-16T00:31:09;18.40;;;9.15;;
65533;SDS011;53640;55.838;37.184;2024-02-16T00:33:35;16.02;;;7.75;;
65533;SDS011;53640;55.838;37.184;2024-02-16T00:36:01;19.02;;;9.05;;
65533;SDS011;53640;55.838;37.184;2024-02-16T00:38:28;23.35;;;9.73;;
65533;SDS011;53640;55.838;37.184;2024-02-16T00:40:54;21.63;;;10.20;;
65533;SDS011;53640;55.838;37.184;2024-02-16T00:43:20;18.15;;;9.45;;
65533;SDS011;53640;55.838;37.184;2024-02-16T00:45:47;16.52;;;8.82;;
65533;SDS011;53640;55.838;37.184;2024-02-16T00:48:14;23.92;;;10.00;;
65533;SDS011;53640;55.838;37.184;2024-02-16T00:50:40;17.90;;;9.02;;
65533;SDS011;53640;55.838;37.184;2024-02-16T00:53:08;19.65;;;9.05;;
65533;SDS011;53640;55.838;37.184;2024-02-16T00:55:34;15.30;;;8.00;;
65533;SDS011;53640;55.838;37.184;2024-02-16T00:58:02;22.42;;;9.32;;
65533;SDS011;53640;55.838;37.184;2024-02-16T01:00:30;20.27;;;9.40;;
65533;SDS011;53640;55.838;37.184;2024-02-16T01:02:57;21.95;;;9.52;;
65533;SDS011;53640;55.838;37.184;2024-02-16T01:05:24;20.70;;;8.98;;
65533;SDS011;53640;55.838;37.184;2024-02-16T01:07:52;19.88;;;9.93;;
65533;SDS011;53640;55.838;37.184;2024-02-16T01:10:21;16.27;;;8.85;;
65533;SDS011;53640;55.838;37.184;2024-02-16T01:12:48;14.82;;;8.05;;
65533;SDS011;53640;55.838;37.184;2024-02-16T01:15:15;19.08;;;9.10;;
65533;SDS011;53640;55.838;37.184;2024-02-16T01:17:41;13.75;;;8.23;;
65533;SDS011;53640;55.838;37.184;2024-02-16T01:20:08;18.30;;;9.05;;
65533;SDS011;53640;55.838;37.184;2024-02-16T01:22:37;16.58;;;8.57;;
65533;SDS011;53640;55.838;37.184;2024-02-16T01:25:05;17.20;;;8.75;;
65533;SDS011;53640;55.838;37.184;2024-02-16T01:27:33;18.25;;;8.88;;
65533;SDS011;53640;55.838;37.184;2024-02-16T01:29:59;21.08;;;9.23;;
65533;SDS011;53640;55.838;37.184;2024-02-16T01:32:28;18.50;;;8.55;;
65533;SDS011;53640;55.838;37.184;2024-02-16T01:34:56;16.13;;;8.38;;
65533;SDS011;53640;55.838;37.184;2024-02-16T01:37:23;15.02;;;8.00;;
65533;SDS011;53640;55.838;37.184;2024-02-16T01:39:50;16.17;;;7.50;;
65533;SDS011;53640;55.838;37.184;2024-02-16T01:42:16;14.35;;;7.85;;
65533;SDS011;53640;55.838;37.184;2024-02-16T01:44:42;18.45;;;8.32;;
65533;SDS011;53640;55.838;37.184;2024-02-16T01:47:09;21.70;;;9.75;;
65533;SDS011;53640;55.838;37.184;2024-02-16T01:49:35;18.35;;;8.82;;
65533;SDS011;53640;55.838;37.184;2024-02-16T01:52:02;20.10;;;8.38;;
65533;SDS011;53640;55.838;37.184;2024-02-16T01:54:30;15.15;;;7.97;;
65533;SDS011;53640;55.838;37.184;2024-02-16T01:56:59;16.33;;;8.23;;
65533;SDS011;53640;55.838;37.184;2024-02-16T01:59:28;17.30;;;8.80;;
65533;SDS011;53640;55.838;37.184;2024-02-16T02:01:55;14.45;;;7.90;;
65533;SDS011;53640;55.838;37.184;2024-02-16T02:04:22;19.55;;;9.27;;
65533;SDS011;53640;55.838;37.184;2024-02-16T02:06:51;21.58;;;9.50;;
65533;SDS011;53640;55.838;37.184;2024-02-16T02:09:17;17.13;;;8.52;;
65533;SDS011;53640;55.838;37.184;2024-02-16T02:11:44;20.02;;;8.60;;
65533;SDS011;53640;55.838;37.184;2024-02-16T02:14:10;18.48;;;8.57;;
65533;SDS011;53640;55.838;37.184;2024-02-16T02:16:37;18.52;;;9.18;;
65533;SDS011;53640;55.838;37.184;2024-02-16T02:19:04;19.27;;;9.02;;
65533;SDS011;53640;55.838;37.184;2024-02-16T02:21:31;14.35;;;7.50;;
65533;SDS011;53640;55.838;37.184;2024-02-16T02:24:01;15.80;;;8.23;;
65533;SDS011;53640;55.838;37.184;2024-02-16T02:26:31;18.48;;;8.93;;
65533;SDS011;53640;55.838;37.184;2024-02-16T02:28:58;16.23;;;7.55;;
65533;SDS011;53640;55.838;37.184;2024-02-16T02:31:24;19.15;;;7.80;;
65533;SDS011;53640;55.838;37.184;2024-02-16T02:33:51;15.38;;;8.50;;
65533;SDS011;53640;55.838;37.184;2024-02-16T02:36:18;18.85;;;9.13;;
65533;SDS011;53640;55.838;37.184;2024-02-16T02:38:44;16.42;;;8.30;;
65533;SDS011;53640;55.838;37.184;2024-02-16T02:41:10;17.38;;;8.40;;
65533;SDS011;53640;55.838;37.184;2024-02-16T02:43:37;17.17;;;8.35;;
65533;SDS011;53640;55.838;37.184;2024-02-16T02:46:04;18.92;;;10.07;;
65533;SDS011;53640;55.838;37.184;2024-02-16T02:48:31;17.85;;;8.13;;
65533;SDS011;53640;55.838;37.184;2024-02-16T02:51:00;16.05;;;7.97;;
65533;SDS011;53640;55.838;37.184;2024-02-16T02:53:29;21.08;;;8.80;;
65533;SDS011;53640;55.838;37.184;2024-02-16T02:55:55;20.13;;;9.40;;
65533;SDS011;53640;55.838;37.184;2024-02-16T02:58:25;17.30;;;8.77;;
65533;SDS011;53640;55.838;37.184;2024-02-16T03:00:52;16.58;;;8.13;;
65533;SDS011;53640;55.838;37.184;2024-02-16T03:03:18;14.63;;;7.00;;
65533;SDS011;53640;55.838;37.184;2024-02-16T03:05:47;16.58;;;8.38;;
65533;SDS011;53640;55.838;37.184;2024-02-16T03:08:14;18.73;;;8.02;;
65533;SDS011;53640;55.838;37.184;2024-02-16T03:10:41;14.43;;;7.30;;
65533;SDS011;53640;55.838;37.184;2024-02-16T03:13:08;21.73;;;8.80;;
65533;SDS011;53640;55.838;37.184;2024-02-16T03:15:36;14.48;;;7.65;;
65533;SDS011;53640;55.838;37.184;2024-02-16T03:18:05;18.95;;;8.05;;
65533;SDS011;53640;55.838;37.184;2024-02-16T03:20:34;17.67;;;7.53;;
65533;SDS011;53640;55.838;37.184;2024-02-16T03:23:02;16.88;;;7.88;;
65533;SDS011;53640;55.838;37.184;2024-02-16T03:25:31;17.88;;;7.45;;
65533;SDS011;53640;55.838;37.184;2024-02-16T03:27:58;20.52;;;9.40;;
65533;SDS011;53640;55.838;37.184;2024-02-16T03:30:28;15.68;;;7.60;;
65533;SDS011;53640;55.838;37.184;2024-02-16T03:32:56;21.80;;;9.27;;
65533;SDS011;53640;55.838;37.184;2024-02-16T03:35:23;19.25;;;9.93;;
65533;SDS011;53640;55.838;37.184;2024-02-16T03:37:49;19.80;;;9.82;;
65533;SDS011;53640;55.838;37.184;2024-02-16T03:40:15;17.42;;;8.43;;
65533;SDS011;53640;55.838;37.184;2024-02-16T03:42:44;17.05;;;8.27;;
65533;SDS011;53640;55.838;37.184;2024-02-16T03:45:10;19.10;;;9.02;;
65533;SDS011;53640;55.838;37.184;2024-02-16T03:47:37;22.00;;;9.18;;
65533;SDS011;53640;55.838;37.184;2024-02-16T03:50:06;22.85;;;10.80;;
65533;SDS011;53640;55.838;37.184;2024-02-16T03:52:33;21.20;;;9.55;;
65533;SDS011;53640;55.838;37.184;2024-02-16T03:55:00;19.85;;;9.43;;
65533;SDS011;53640;55.838;37.184;2024-02-16T03:57:26;24.58;;;10.52;;
65533;SDS011;53640;55.838;37.184;2024-02-16T03:59:53;20.60;;;9.80;;
65533;SDS011;53640;55.838;37.184;2024-02-16T04:02:20;20.50;;;9.73;;
65533;SDS011;53640;55.838;37.184;2024-02-16T04:04:46;20.60;;;9.75;;
65533;SDS011;53640;55.838;37.184;2024-02-16T04:07:17;24.65;;;10.43;;
65533;SDS011;53640;55.838;37.184;2024-02-16T04:09:44;23.17;;;10.25;;
65533;SDS011;53640;55.838;37.184;2024-02-16T04:12:11;20.20;;;10.05;;
65533;SDS011;53640;55.838;37.184;2024-02-16T04:14:37;15.95;;;8.52;;
65533;SDS011;53640;55.838;37.184;2024-02-16T04:17:07;18.52;;;8.85;;
65533;SDS011;53640;55.838;37.184;2024-02-16T04:19:33;18.98;;;9.70;;
65533;SDS011;53640;55.838;37.184;2024-02-16T04:22:02;23.30;;;10.18;;
65533;SDS011;53640;55.838;37.184;2024-02-16T04:24:29;23.58;;;10.13;;
65533;SDS011;53640;55.838;37.184;2024-02-16T04:26:56;21.75;;;9.30;;
65533;SDS011;53640;55.838;37.184;2024-02-16T04:29:22;22.83;;;10.27;;
65533;SDS011;53640;55.838;37.184;2024-02-16T04:31:49;20.70;;;9.73;;
65533;SDS011;53640;55.838;37.184;2024-02-16T04:34:15;22.10;;;9.50;;
65533;SDS011;53640;55.838;37.184;2024-02-16T04:36:42;27.30;;;11.60;;
65533;SDS011;53640;55.838;37.184;2024-02-16T04:39:09;26.55;;;11.65;;
65533;SDS011;53640;55.838;37.184;2024-02-16T04:41:40;20.95;;;10.48;;
65533;SDS011;53640;55.838;37.184;2024-02-16T04:44:07;27.27;;;12.38;;
65533;SDS011;53640;55.838;37.184;2024-02-16T04:46:33;28.40;;;11.90;;
65533;SDS011;53640;55.838;37.184;2024-02-16T04:49:00;22.73;;;10.00;;
65533;SDS011;53640;55.838;37.184;2024-02-16T04:51:26;26.40;;;10.60;;
65533;SDS011;53640;55.838;37.184;2024-02-16T04:53:52;25.88;;;11.70;;
65533;SDS011;53640;55.838;37.184;2024-02-16T04:56:19;21.80;;;11.13;;
65533;SDS011;53640;55.838;37.184;2024-02-16T04:58:46;26.83;;;11.68;;
65533;SDS011;53640;55.838;37.184;2024-02-16T05:01:14;23.05;;;10.93;;
65533;SDS011;53640;55.838;37.184;2024-02-16T05:03:40;26.40;;;11.65;;
65533;SDS011;53640;55.838;37.184;2024-02-16T05:06:07;21.52;;;10.43;;
65533;SDS011;53640;55.838;37.184;2024-02-16T05:08:33;21.45;;;10.93;;
65533;SDS011;53640;55.838;37.184;2024-02-16T05:11:00;25.08;;;10.93;;
65533;SDS011;53640;55.838;37.184;2024-02-16T05:13:28;24.67;;;10.52;;
65533;SDS011;53640;55.838;37.184;2024-02-16T05:15:55;26.73;;;10.90;;
65533;SDS011;53640;55.838;37.184;2024-02-16T05:18:22;22.50;;;11.30;;
65533;SDS011;53640;55.838;37.184;2024-02-16T05:20:48;20.17;;;10.13;;
65533;SDS011;53640;55.838;37.184;2024-02-16T05:23:15;27.77;;;11.10;;
65533;SDS011;53640;55.838;37.184;2024-02-16T05:25:41;22.80;;;11.57;;
65533;SDS011;53640;55.838;37.184;2024-02-16T05:28:07;20.42;;;10.15;;
65533;SDS011;53640;55.838;37.184;2024-02-16T05:30:34;29.58;;;12.48;;
65533;SDS011;53640;55.838;37.184;2024-02-16T05:33:00;25.55;;;10.65;;
65533;SDS011;53640;55.838;37.184;2024-02-16T05:35:28;26.63;;;11.25;;
65533;SDS011;53640;55.838;37.184;2024-02-16T05:37:59;20.45;;;9.82;;
65533;SDS011;53640;55.838;37.184;2024-02-16T05:40:32;25.25;;;11.68;;
65533;SDS011;53640;55.838;37.184;2024-02-16T05:43:11;21.75;;;11.20;;
65533;SDS011;53640;55.838;37.184;2024-02-16T05:45:37;22.20;;;12.10;;
65533;SDS011;53640;55.838;37.184;2024-02-16T05:48:04;26.75;;;11.13;;
65533;SDS011;53640;55.838;37.184;2024-02-16T05:50:31;17.58;;;9.88;;
65533;SDS011;53640;55.838;37.184;2024-02-16T05:52:57;20.55;;;9.93;;
65533;SDS011;53640;55.838;37.184;2024-02-16T05:55:26;20.23;;;10.70;;
65533;SDS011;53640;55.838;37.184;2024-02-16T05:57:52;24.58;;;10.07;;
65533;SDS011;53640;55.838;37.184;2024-02-16T06:00:18;23.17;;;11.20;;
65533;SDS011;53640;55.838;37.184;2024-02-16T06:02:47;23.02;;;10.88;;
65533;SDS011;53640;55.838;37.184;2024-02-16T06:05:13;23.70;;;11.75;;
65533;SDS011;53640;55.838;37.184;2024-02-16T06:07:40;24.02;;;10.73;;
65533;SDS011;53640;55.838;37.184;2024-02-16T06:10:07;20.80;;;10.27;;
65533;SDS011;53640;55.838;37.184;2024-02-16T06:12:37;19.73;;;9.95;;
65533;SDS011;53640;55.838;37.184;2024-02-16T06:15:07;18.90;;;9.45;;
65533;SDS011;53640;55.838;37.184;2024-02-16T06:17:34;19.50;;;9.25;;
65533;SDS011;53640;55.838;37.184;2024-02-16T06:20:02;23.15;;;11.45;;
65533;SDS011;53640;55.838;37.184;2024-02-16T06:22:30;20.30;;;11.25;;
65533;SDS011;53640;55.838;37.184;2024-02-16T06:24:59;25.83;;;11.50;;
65533;SDS011;53640;55.838;37.184;2024-02-16T06:27:26;21.55;;;10.27;;
65533;SDS011;53640;55.838;37.184;2024-02-16T06:29:54;23.55;;;10.48;;
65533;SDS011;53640;55.838;37.184;2024-02-16T06:32:20;21.52;;;9.70;;
65533;SDS011;53640;55.838;37.184;2024-02-16T06:34:46;21.52;;;10.65;;
65533;SDS011;53640;55.838;37.184;2024-02-16T06:37:13;26.27;;;13.13;;
65533;SDS011;53640;55.838;37.184;2024-02-16T06:39:41;25.10;;;12.07;;
65533;SDS011;53640;55.838;37.184;2024-02-16T06:42:10;23.83;;;10.88;;
65533;SDS011;53640;55.838;37.184;2024-02-16T06:44:38;22.85;;;11.05;;
65533;SDS011;53640;55.838;37.184;2024-02-16T06:47:05;23.25;;;12.27;;
65533;SDS011;53640;55.838;37.184;2024-02-16T06:49:33;26.55;;;12.77;;
65533;SDS011;53640;55.838;37.184;2024-02-16T06:52:02;25.88;;;12.20;;
65533;SDS011;53640;55.838;37.184;2024-02-16T06:54:28;22.50;;;11.48;;
65533;SDS011;53640;55.838;37.184;2024-02-16T06:56:55;26.95;;;11.48;;
65533;SDS011;53640;55.838;37.184;2024-02-16T06:59:21;25.23;;;11.82;;
65533;SDS011;53640;55.838;37.184;2024-02-16T07:01:50;23.85;;;11.63;;
65533;SDS011;53640;55.838;37.184;2024-02-16T07:04:16;24.38;;;11.45;;
65533;SDS011;53640;55.838;37.184;2024-02-16T07:06:43;30.60;;;13.75;;
65533;SDS011;53640;55.838;37.184;2024-02-16T07:09:11;25.52;;;11.80;;
65533;SDS011;53640;55.838;37.184;2024-02-16T07:11:41;19.33;;;10.30;;
65533;SDS011;53640;55.838;37.184;2024-02-16T07:14:08;25.10;;;11.75;;
65533;SDS011;53640;55.838;37.184;2024-02-16T07:16:36;23.92;;;11.65;;
65533;SDS011;53640;55.838;37.184;2024-02-16T07:19:05;22.25;;;11.00;;
65533;SDS011;53640;55.838;37.184;2024-02-16T07:21:31;24.60;;;12.20;;
65533;SDS011;53640;55.838;37.184;2024-02-16T07:23:57;22.13;;;10.30;;
65533;SDS011;53640;55.838;37.184;2024-02-16T07:26:26;29.08;;;12.43;;
65533;SDS011;53640;55.838;37.184;2024-02-16T07:28:57;25.45;;;11.95;;
65533;SDS011;53640;55.838;37.184;2024-02-16T07:31:24;23.00;;;10.95;;
65533;SDS011;53640;55.838;37.184;2024-02-16T07:33:50;25.20;;;11.82;;
65533;SDS011;53640;55.838;37.184;2024-02-16T07:36:17;24.70;;;11.77;;
65533;SDS011;53640;55.838;37.184;2024-02-16T07:38:44;24.02;;;11.55;;
65533;SDS011;53640;55.838;37.184;2024-02-16T07:41:12;22.42;;;11.88;;
65533;SDS011;53640;55.838;37.184;2024-02-16T07:43:39;20.00;;;10.00;;
65533;SDS011;53640;55.838;37.184;2024-02-16T07:46:06;23.75;;;10.63;;
65533;SDS011;53640;55.838;37.184;2024-02-16T07:48:34;20.52;;;9.60;;
65533;SDS011;53640;55.838;37.184;2024-02-16T07:51:01;19.92;;;9.93;;
65533;SDS011;53640;55.838;37.184;2024-02-16T07:53:29;18.70;;;9.93;;
65533;SDS011;53640;55.838;37.184;2024-02-16T07:55:56;27.75;;;12.60;;
65533;SDS011;53640;55.838;37.184;2024-02-16T07:58:27;25.73;;;10.75;;
65533;SDS011;53640;55.838;37.184;2024-02-16T08:00:53;21.27;;;10.65;;
65533;SDS011;53640;55.838;37.184;2024-02-16T08:03:21;20.83;;;10.63;;
65533;SDS011;53640;55.838;37.184;2024-02-16T08:05:47;25.42;;;12.02;;
65533;SDS011;53640;55.838;37.184;2024-02-16T08:08:14;26.10;;;12.05;;
65533;SDS011;53640;55.838;37.184;2024-02-16T08:10:40;24.67;;;11.93;;
65533;SDS011;53640;55.838;37.184;2024-02-16T08:13:07;27.10;;;12.18;;
65533;SDS011;53640;55.838;37.184;2024-02-16T08:15:33;24.05;;;12.00;;
65533;SDS011;53640;55.838;37.184;2024-02-16T08:17:59;28.48;;;13.45;;
65533;SDS011;53640;55.838;37.184;2024-02-16T08:20:26;26.52;;;12.07;;
65533;SDS011;53640;55.838;37.184;2024-02-16T08:22:54;26.50;;;11.98;;
65533;SDS011;53640;55.838;37.184;2024-02-16T08:25:20;24.63;;;11.07;;
65533;SDS011;53640;55.838;37.184;2024-02-16T08:27:46;21.58;;;10.88;;
65533;SDS011;53640;55.838;37.184;2024-02-16T08:30:13;28.52;;;13.32;;
65533;SDS011;53640;55.838;37.184;2024-02-16T08:32:40;25.08;;;11.75;;
65533;SDS011;53640;55.838;37.184;2024-02-16T08:35:07;28.35;;;12.45;;
65533;SDS011;53640;55.838;37.184;2024-02-16T08:37:34;23.95;;;12.18;;
65533;SDS011;53640;55.838;37.184;2024-02-16T08:40:06;21.67;;;11.25;;
65533;SDS011;53640;55.838;37.184;2024-02-16T08:42:41;25.58;;;12.32;;
65533;SDS011;53640;55.838;37.184;2024-02-16T08:45:08;26.35;;;12.30;;
65533;SDS011;53640;55.838;37.184;2024-02-16T08:47:35;23.25;;;11.35;;
65533;SDS011;53640;55.838;37.184;2024-02-16T08:50:03;20.30;;;11.05;;
65533;SDS011;53640;55.838;37.184;2024-02-16T08:52:30;21.23;;;10.98;;
65533;SDS011;53640;55.838;37.184;2024-02-16T08:55:07;22.77;;;12.23;;
65533;SDS011;53640;55.838;37.184;2024-02-16T08:57:35;23.83;;;11.90;;
65533;SDS011;53640;55.838;37.184;2024-02-16T09:00:06;25.75;;;11.82;;
65533;SDS011;53640;55.838;37.184;2024-02-16T09:02:33;25.95;;;12.25;;
65533;SDS011;53640;55.838;37.184;2024-02-16T09:05:01;22.58;;;11.63;;
65533;SDS011;53640;55.838;37.184;2024-02-16T09:07:27;27.15;;;11.93;;
65533;SDS011;53640;55.838;37.184;2024-02-16T09:09:54;26.83;;;12.88;;
65533;SDS011;53640;55.838;37.184;2024-02-16T09:12:22;27.75;;;11.65;;
65533;SDS011;53640;55.838;37.184;2024-02-16T09:14:49;23.35;;;11.32;;
65533;SDS011;53640;55.838;37.184;2024-02-16T09:17:15;24.60;;;12.43;;
65533;SDS011;53640;55.838;37.184;2024-02-16T09:19:42;25.17;;;12.27;;
65533;SDS011;53640;55.838;37.184;2024-02-16T09:22:08;26.30;;;11.27;;
65533;SDS011;53640;55.838;37.184;2024-02-16T09:24:35;27.45;;;12.68;;
65533;SDS011;53640;55.838;37.184;2024-02-16T09:27:02;22.25;;;11.27;;
65533;SDS011;53640;55.838;37.184;2024-02-16T09:29:33;23.13;;;11.98;;
65533;SDS011;53640;55.838;37.184;2024-02-16T09:31:59;27.60;;;14.40;;
65533;SDS011;53640;55.838;37.184;2024-02-16T09:34:29;25.58;;;12.32;;
65533;SDS011;53640;55.838;37.184;2024-02-16T09:36:55;26.48;;;13.38;;
65533;SDS011;53640;55.838;37.184;2024-02-16T09:39:22;28.23;;;13.82;;
65533;SDS011;53640;55.838;37.184;2024-02-16T09:41:49;26.65;;;13.73;;
65533;SDS011;53640;55.838;37.184;2024-02-16T09:44:22;26.73;;;12.98;;
65533;SDS011;53640;55.838;37.184;2024-02-16T09:46:53;25.63;;;13.25;;
65533;SDS011;53640;55.838;37.184;2024-02-16T09:49:20;25.42;;;12.95;;
65533;SDS011;53640;55.838;37.184;2024-02-16T09:51:47;26.30;;;13.77;;
65533;SDS011;53640;55.838;37.184;2024-02-16T09:54:14;23.60;;;12.50;;
65533;SDS011;53640;55.838;37.184;2024-02-16T09:56:41;29.00;;;14.95;;
65533;SDS011;53640;55.838;37.184;2024-02-16T09:59:11;24.45;;;12.10;;
65533;SDS011;53640;55.838;37.184;2024-02-16T10:01:38;31.98;;;14.07;;
65533;SDS011;53640;55.838;37.184;2024-02-16T10:04:05;26.90;;;12.93;;
65533;SDS011;53640;55.838;37.184;2024-02-16T10:06:56;24.67;;;12.52;;
65533;SDS011;53640;55.838;37.184;2024-02-16T10:09:22;22.20;;;11.68;;
65533;SDS011;53640;55.838;37.184;2024-02-16T10:11:51;22.92;;;12.50;;
65533;SDS011;53640;55.838;37.184;2024-02-16T10:14:17;24.88;;;12.60;;
65533;SDS011;53640;55.838;37.184;2024-02-16T10:16:58;27.02;;;12.90;;
65533;SDS011;53640;55.838;37.184;2024-02-16T10:19:29;25.17;;;13.52;;
65533;SDS011;53640;55.838;37.184;2024-02-16T10:22:09;27.67;;;14.45;;
65533;SDS011;53640;55.838;37.184;2024-02-16T10:24:36;25.05;;;11.85;;
65533;SDS011;53640;55.838;37.184;2024-02-16T10:27:05;25.65;;;12.23;;
65533;SDS011;53640;55.838;37.184;2024-02-16T10:29:36;26.15;;;13.23;;
65533;SDS011;53640;55.838;37.184;2024-02-16T10:32:05;26.33;;;12.95;;
65533;SDS011;53640;55.838;37.184;2024-02-16T10:34:35;25.08;;;12.10;;
65533;SDS011;53640;55.838;37.184;2024-02-16T10:37:03;26.58;;;13.60;;
65533;SDS011;53640;55.838;37.184;2024-02-16T10:39:35;20.88;;;10.98;;
65533;SDS011;53640;55.838;37.184;2024-02-16T10:42:04;21.63;;;11.30;;
65533;SDS011;53640;55.838;37.184;2024-02-16T10:44:32;35.72;;;14.10;;
65533;SDS011;53640;55.838;37.184;2024-02-16T10:47:04;25.63;;;13.13;;
65533;SDS011;53640;55.838;37.184;2024-02-16T10:49:30;27.10;;;12.50;;
65533;SDS011;53640;55.838;37.184;2024-02-16T10:51:57;26.70;;;13.45;;
65533;SDS011;53640;55.838;37.184;2024-02-16T10:54:27;32.20;;;16.13;;
65533;SDS011;53640;55.838;37.184;2024-02-16T10:56:57;31.30;;;15.63;;
65533;SDS011;53640;55.838;37.184;2024-02-16T10:59:23;32.22;;;15.18;;
65533;SDS011;53640;55.838;37.184;2024-02-16T11:02:02;30.58;;;13.48;;
65533;SDS011;53640;55.838;37.184;2024-02-16T11:04:36;24.90;;;12.52;;
65533;SDS011;53640;55.838;37.184;2024-02-16T11:07:11;29.77;;;14.07;;
65533;SDS011;53640;55.838;37.184;2024-02-16T11:09:43;23.67;;;11.50;;
65533;SDS011;53640;55.838;37.184;2024-02-16T11:12:13;26.20;;;12.98;;
65533;SDS011;53640;55.838;37.184;2024-02-16T11:14:44;28.48;;;13.45;;
65533;SDS011;53640;55.838;37.184;2024-02-16T11:17:21;26.90;;;13.35;;
65533;SDS011;53640;55.838;37.184;2024-02-16T11:19:53;25.05;;;12.43;;
65533;SDS011;53640;55.838;37.184;2024-02-16T11:22:26;33.47;;;16.35;;
65533;SDS011;53640;55.838;37.184;2024-02-16T11:24:54;29.42;;;15.07;;
65533;SDS011;53640;55.838;37.184;2024-02-16T11:27:20;30.30;;;13.70;;
65533;SDS011;53640;55.838;37.184;2024-02-16T11:29:48;26.08;;;12.52;;
65533;SDS011;53640;55.838;37.184;2024-02-16T11:32:16;26.38;;;13.68;;
65533;SDS011;53640;55.838;37.184;2024-02-16T11:34:44;30.85;;;14.98;;
65533;SDS011;53640;55.838;37.184;2024-02-16T11:37:12;31.10;;;14.82;;
65533;SDS011;53640;55.838;37.184;2024-02-16T11:39:38;46.13;;;18.25;;
65533;SDS011;53640;55.838;37.184;2024-02-16T11:42:08;35.22;;;16.45;;
65533;SDS011;53640;55.838;37.184;2024-02-16T11:44:39;30.38;;;14.35;;
65533;SDS011;53640;55.838;37.184;2024-02-16T11:47:19;28.00;;;13.07;;
65533;SDS011;53640;55.838;37.184;2024-02-16T11:50:05;28.92;;;13.93;;
65533;SDS011;53640;55.838;37.184;2024-02-16T11:52:40;25.73;;;12.80;;
65533;SDS011;53640;55.838;37.184;2024-02-16T11:55:08;26.88;;;13.23;;
65533;SDS011;53640;55.838;37.184;2024-02-16T11:57:37;33.40;;;14.27;;
65533;SDS011;53640;55.838;37.184;2024-02-16T12:00:04;22.90;;;12.15;;
65533;SDS011;53640;55.838;37.184;2024-02-16T12:02:36;23.85;;;12.63;;
65533;SDS011;53640;55.838;37.184;2024-02-16T12:05:03;31.40;;;15.23;;
65533;SDS011;53640;55.838;37.184;2024-02-16T12:07:40;27.50;;;13.95;;
65533;SDS011;53640;55.838;37.184;2024-02-16T12:10:08;26.98;;;13.68;;
65533;SDS011;53640;55.838;37.184;2024-02-16T12:12:36;22.92;;;12.32;;
65533;SDS011;53640;55.838;37.184;2024-02-16T12:15:04;29.60;;;16.05;;
65533;SDS011;53640;55.838;37.184;2024-02-16T12:17:32;26.77;;;13.52;;
65533;SDS011;53640;55.838;37.184;2024-02-16T12:19:58;26.30;;;13.20;;
65533;SDS011;53640;55.838;37.184;2024-02-16T12:22:37;29.17;;;14.70;;
65533;SDS011;53640;55.838;37.184;2024-02-16T12:25:17;33.08;;;16.45;;
65533;SDS011;53640;55.838;37.184;2024-02-16T12:27:44;31.33;;;15.05;;
65533;SDS011;53640;55.838;37.184;2024-02-16T12:30:11;34.17;;;16.55;;
65533;SDS011;53640;55.838;37.184;2024-02-16T12:32:38;33.13;;;16.58;;
65533;SDS011;53640;55.838;37.184;2024-02-16T12:35:09;36.42;;;16.75;;
65533;SDS011;53640;55.838;37.184;2024-02-16T12:37:38;34.47;;;16.55;;
65533;SDS011;53640;55.838;37.184;2024-02-16T12:40:09;28.48;;;13.40;;
65533;SDS011;53640;55.838;37.184;2024-02-16T12:42:39;25.77;;;13.27;;
65533;SDS011;53640;55.838;37.184;2024-02-16T12:45:12;29.08;;;14.70;;
65533;SDS011;53640;55.838;37.184;2024-02-16T12:47:43;26.63;;;14.75;;
65533;SDS011;53640;55.838;37.184;2024-02-16T12:50:12;29.60;;;13.30;;
65533;SDS011;53640;55.838;37.184;2024-02-16T12:52:42;24.65;;;12.90;;
65533;SDS011;53640;55.838;37.184;2024-02-16T12:55:11;27.67;;;13.93;;
65533;SDS011;53640;55.838;37.184;2024-02-16T12:57:39;24.02;;;12.80;;
65533;SDS011;53640;55.838;37.184;2024-02-16T13:00:07;34.75;;;16.40;;
65533;SDS011;53640;55.838;37.184;2024-02-16T13:02:40;30.00;;;13.48;;
65533;SDS011;53640;55.838;37.184;2024-02-16T13:05:07;30.02;;;14.05;;
65533;SDS011;53640;55.838;37.184;2024-02-16T13:07:34;31.25;;;14.43;;
65533;SDS011;53640;55.838;37.184;2024-02-16T13:10:01;26.27;;;14.40;;
65533;SDS011;53640;55.838;37.184;2024-02-16T13:12:28;25.80;;;13.20;;
65533;SDS011;53640;55.838;37.184;2024-02-16T13:14:57;25.60;;;12.52;;
65533;SDS011;53640;55.838;37.184;2024-02-16T13:17:23;22.98;;;12.23;;
65533;SDS011;53640;55.838;37.184;2024-02-16T13:19:51;27.30;;;14.00;;
65533;SDS011;53640;55.838;37.184;2024-02-16T13:22:19;29.30;;;14.52;;
65533;SDS011;53640;55.838;37.184;2024-02-16T13:24:45;30.73;;;14.00;;
65533;SDS011;53640;55.838;37.184;2024-02-16T13:27:13;28.52;;;15.02;;
65533;SDS011;53640;55.838;37.184;2024-02-16T13:29:40;30.67;;;14.63;;
65533;SDS011;53640;55.838;37.184;2024-02-16T13:32:07;28.65;;;15.02;;
65533;SDS011;53640;55.838;37.184;2024-02-16T13:34:36;29.50;;;14.77;;
65533;SDS011;53640;55.838;37.184;2024-02-16T13:37:03;26.25;;;13.10;;
65533;SDS011;53640;55.838;37.184;2024-02-16T13:39:29;42.33;;;17.02;;
65533;SDS011;53640;55.838;37.184;2024-02-16T13:41:56;26.52;;;13.20;;
65533;SDS011;53640;55.838;37.184;2024-02-16T13:44:23;31.50;;;14.77;;
65533;SDS011;53640;55.838;37.184;2024-02-16T13:46:50;28.85;;;14.73;;
65533;SDS011;53640;55.838;37.184;2024-02-16T13:49:16;31.75;;;14.98;;
65533;SDS011;53640;55.838;37.184;2024-02-16T13:51:43;29.98;;;14.10;;
65533;SDS011;53640;55.838;37.184;2024-02-16T13:54:12;27.92;;;13.82;;
65533;SDS011;53640;55.838;37.184;2024-02-16T13:56:42;24.80;;;14.00;;
65533;SDS011;53640;55.838;37.184;2024-02-16T13:59:33;25.63;;;13.32;;
65533;SDS011;53640;55.838;37.184;2024-02-16T14:02:09;30.25;;;14.48;;
65533;SDS011;53640;55.838;37.184;2024-02-16T14:04:38;28.65;;;14.38;;
65533;SDS011;53640;55.838;37.184;2024-02-16T14:07:06;26.02;;;12.80;;
65533;SDS011;53640;55.838;37.184;2024-02-16T14:09:34;25.73;;;13.00;;
65533;SDS011;53640;55.838;37.184;2024-02-16T14:12:03;33.58;;;15.70;;
65533;SDS011;53640;55.838;37.184;2024-02-16T14:14:34;30.33;;;14.95;;
65533;SDS011;53640;55.838;37.184;2024-02-16T14:17:00;24.83;;;13.23;;
65533;SDS011;53640;55.838;37.184;2024-02-16T14:19:27;26.55;;;12.98;;